sensor_id;sensor_type;location;lat;lon;timestamp;temperature;humidity
19172;DHT22;9718;52.200;21.052;2022-09-27T00:01:25;12.10;99.90
19172;DHT22;9718;52.200;21.052;2022-09-27T00:04:06;12.20;99.90
19172;DHT22;9718;52.200;21.052;2022-09-27T00:06:47;12.20;99.90
19172;DHT22;9718;52.200;21.052;2022-09-27T00:09:41;12.20;99.90
19172;DHT22;9718;52.200;21.052;2022-09-27T00:12:22;12.20;99.90
19172;DHT22;9718;52.200;21.052;2022-09-27T00:15:05;12.20;99.90
19172;DHT22;9718;52.200;21.052;2022-09-27T00:17:47;12.20;99.90
19172;DHT22;9718;52.200;21.052;2022-09-27T00:20:33;12.20;99.90
19172;DHT22;9718;52.200;21.052;2022-09-27T00:23:14;12.20;99.90
19172;DHT22;9718;52.200;21.052;2022-09-27T00:25:57;12.20;99.90
19172;DHT22;9718;52.200;21.052;2022-09-27T00:28:47;12.30;99.90
19172;DHT22;9718;52.200;21.052;2022-09-27T00:31:29;12.30;99.90
19172;DHT22;9718;52.200;21.052;2022-09-27T00:34:18;12.30;99.90
19172;DHT22;9718;52.200;21.052;2022-09-27T00:37:00;12.30;99.90
19172;DHT22;9718;52.200;21.052;2022-09-27T00:39:42;12.30;99.90
19172;DHT22;9718;52.200;21.052;2022-09-27T00:42:23;12.20;99.90
19172;DHT22;9718;52.200;21.052;2022-09-27T00:45:15;12.20;99.90
19172;DHT22;9718;52.200;21.052;2022-09-27T00:47:55;12.30;99.90
19172;DHT22;9718;52.200;21.052;2022-09-27T00:50:43;12.20;99.90
19172;DHT22;9718;52.200;21.052;2022-09-27T00:53:44;12.20;99.90
19172;DHT22;9718;52.200;21.052;2022-09-27T00:56:30;12.20;99.90
19172;DHT22;9718;52.200;21.052;2022-09-27T00:59:25;12.20;99.90
19172;DHT22;9718;52.200;21.052;2022-09-27T01:02:07;12.20;99.90
19172;DHT22;9718;52.200;21.052;2022-09-27T01:04:49;12.20;99.90
19172;DHT22;9718;52.200;21.052;2022-09-27T01:07:31;12.20;99.90
19172;DHT22;9718;52.200;21.052;2022-09-27T01:10:13;12.20;99.90
19172;DHT22;9718;52.200;21.052;2022-09-27T01:15:42;12.10;99.90
19172;DHT22;9718;52.200;21.052;2022-09-27T01:18:40;12.20;99.90
19172;DHT22;9718;52.200;21.052;2022-09-27T01:30:52;12.10;99.90
19172;DHT22;9718;52.200;21.052;2022-09-27T01:34:09;12.00;99.90
19172;DHT22;9718;52.200;21.052;2022-09-27T01:39:57;12.00;99.90
19172;DHT22;9718;52.200;21.052;2022-09-27T01:45:56;11.90;99.90
19172;DHT22;9718;52.200;21.052;2022-09-27T01:48:43;11.90;99.90
19172;DHT22;9718;52.200;21.052;2022-09-27T01:51:39;12.00;99.90
19172;DHT22;9718;52.200;21.052;2022-09-27T01:54:27;12.10;99.90
19172;DHT22;9718;52.200;21.052;2022-09-27T01:57:12;12.10;99.90
19172;DHT22;9718;52.200;21.052;2022-09-27T02:00:04;12.00;99.90
19172;DHT22;9718;52.200;21.052;2022-09-27T02:02:57;12.00;99.90
19172;DHT22;9718;52.200;21.052;2022-09-27T02:06:13;12.00;99.90
19172;DHT22;9718;52.200;21.052;2022-09-27T02:09:26;12.10;99.90
19172;DHT22;9718;52.200;21.052;2022-09-27T02:12:13;12.00;99.90
19172;DHT22;9718;52.200;21.052;2022-09-27T02:14:57;12.00;99.90
19172;DHT22;9718;52.200;21.052;2022-09-27T02:22:48;12.10;99.90
19172;DHT22;9718;52.200;21.052;2022-09-27T02:29:06;12.20;99.90
19172;DHT22;9718;52.200;21.052;2022-09-27T02:31:48;12.20;99.90
19172;DHT22;9718;52.200;21.052;2022-09-27T02:34:32;12.20;99.90
19172;DHT22;9718;52.200;21.052;2022-09-27T02:37:16;12.20;99.90
19172;DHT22;9718;52.200;21.052;2022-09-27T02:39:57;12.20;99.90
19172;DHT22;9718;52.200;21.052;2022-09-27T02:43:07;12.20;99.90
19172;DHT22;9718;52.200;21.052;2022-09-27T02:55:18;12.30;99.90
19172;DHT22;9718;52.200;21.052;2022-09-27T03:08:08;12.20;99.90
19172;DHT22;9718;52.200;21.052;2022-09-27T03:10:51;12.20;99.90
19172;DHT22;9718;52.200;21.052;2022-09-27T03:13:33;12.30;99.90
19172;DHT22;9718;52.200;21.052;2022-09-27T03:16:36;12.30;99.90
19172;DHT22;9718;52.200;21.052;2022-09-27T03:19:17;12.30;99.90
19172;DHT22;9718;52.200;21.052;2022-09-27T03:21:58;12.30;99.90
19172;DHT22;9718;52.200;21.052;2022-09-27T03:24:40;12.30;99.90
19172;DHT22;9718;52.200;21.052;2022-09-27T03:27:19;12.30;99.90
19172;DHT22;9718;52.200;21.052;2022-09-27T03:30:01;12.30;99.90
19172;DHT22;9718;52.200;21.052;2022-09-27T03:32:43;12.40;99.90
19172;DHT22;9718;52.200;21.052;2022-09-27T03:35:24;12.40;99.90
19172;DHT22;9718;52.200;21.052;2022-09-27T03:38:06;12.40;99.90
19172;DHT22;9718;52.200;21.052;2022-09-27T03:40:47;12.40;99.90
19172;DHT22;9718;52.200;21.052;2022-09-27T03:43:28;12.40;99.90
19172;DHT22;9718;52.200;21.052;2022-09-27T03:46:09;12.40;99.90
19172;DHT22;9718;52.200;21.052;2022-09-27T03:48:50;12.40;99.90
19172;DHT22;9718;52.200;21.052;2022-09-27T03:51:31;12.40;99.90
19172;DHT22;9718;52.200;21.052;2022-09-27T03:54:12;12.40;99.90
19172;DHT22;9718;52.200;21.052;2022-09-27T03:56:53;12.40;99.90
19172;DHT22;9718;52.200;21.052;2022-09-27T03:59:35;12.40;99.90
19172;DHT22;9718;52.200;21.052;2022-09-27T04:02:16;12.40;99.90
19172;DHT22;9718;52.200;21.052;2022-09-27T04:04:58;12.40;99.90
19172;DHT22;9718;52.200;21.052;2022-09-27T04:07:39;12.40;99.90
19172;DHT22;9718;52.200;21.052;2022-09-27T04:10:20;12.40;99.90
19172;DHT22;9718;52.200;21.052;2022-09-27T04:13:01;12.40;99.90
19172;DHT22;9718;52.200;21.052;2022-09-27T04:15:42;12.40;99.90
19172;DHT22;9718;52.200;21.052;2022-09-27T04:18:24;12.40;99.90
19172;DHT22;9718;52.200;21.052;2022-09-27T04:21:05;12.30;99.90
19172;DHT22;9718;52.200;21.052;2022-09-27T04:23:46;12.30;99.90
19172;DHT22;9718;52.200;21.052;2022-09-27T04:26:43;12.40;99.90
19172;DHT22;9718;52.200;21.052;2022-09-27T04:29:24;12.40;99.90
19172;DHT22;9718;52.200;21.052;2022-09-27T04:32:05;12.50;99.90
19172;DHT22;9718;52.200;21.052;2022-09-27T04:34:46;12.50;99.90
19172;DHT22;9718;52.200;21.052;2022-09-27T04:37:46;12.40;99.90
19172;DHT22;9718;52.200;21.052;2022-09-27T04:40:28;12.40;99.90
19172;DHT22;9718;52.200;21.052;2022-09-27T04:43:09;12.30;99.90
19172;DHT22;9718;52.200;21.052;2022-09-27T04:48:36;12.40;99.90
19172;DHT22;9718;52.200;21.052;2022-09-27T04:51:17;12.40;99.90
19172;DHT22;9718;52.200;21.052;2022-09-27T04:54:27;12.40;99.90
19172;DHT22;9718;52.200;21.052;2022-09-27T04:57:31;12.30;99.90
19172;DHT22;9718;52.200;21.052;2022-09-27T05:00:13;12.30;99.90
19172;DHT22;9718;52.200;21.052;2022-09-27T05:02:55;12.30;99.90
19172;DHT22;9718;52.200;21.052;2022-09-27T05:05:36;12.30;99.90
19172;DHT22;9718;52.200;21.052;2022-09-27T05:08:25;12.20;99.90
19172;DHT22;9718;52.200;21.052;2022-09-27T05:11:14;12.20;99.90
19172;DHT22;9718;52.200;21.052;2022-09-27T05:13:55;12.20;99.90
19172;DHT22;9718;52.200;21.052;2022-09-27T05:16:37;12.20;99.90
19172;DHT22;9718;52.200;21.052;2022-09-27T05:19:18;12.30;99.90
19172;DHT22;9718;52.200;21.052;2022-09-27T05:21:59;12.30;99.90
19172;DHT22;9718;52.200;21.052;2022-09-27T05:24:40;12.30;99.90
19172;DHT22;9718;52.200;21.052;2022-09-27T05:27:21;12.30;99.90
19172;DHT22;9718;52.200;21.052;2022-09-27T05:30:03;12.30;99.90
19172;DHT22;9718;52.200;21.052;2022-09-27T05:32:29;12.30;99.90
19172;DHT22;9718;52.200;21.052;2022-09-27T05:35:18;12.30;99.90
19172;DHT22;9718;52.200;21.052;2022-09-27T05:37:59;12.30;99.90
19172;DHT22;9718;52.200;21.052;2022-09-27T05:40:41;12.30;99.90
19172;DHT22;9718;52.200;21.052;2022-09-27T05:43:24;12.30;99.90
19172;DHT22;9718;52.200;21.052;2022-09-27T05:46:05;12.30;99.90
19172;DHT22;9718;52.200;21.052;2022-09-27T05:48:46;12.20;99.90
19172;DHT22;9718;52.200;21.052;2022-09-27T05:51:27;12.10;99.90
19172;DHT22;9718;52.200;21.052;2022-09-27T05:54:08;12.10;99.90
19172;DHT22;9718;52.200;21.052;2022-09-27T06:08:56;12.10;99.90
19172;DHT22;9718;52.200;21.052;2022-09-27T06:11:37;11.90;99.90
19172;DHT22;9718;52.200;21.052;2022-09-27T06:14:22;11.70;99.90
19172;DHT22;9718;52.200;21.052;2022-09-27T06:17:05;11.60;99.90
19172;DHT22;9718;52.200;21.052;2022-09-27T06:19:46;11.50;99.90
19172;DHT22;9718;52.200;21.052;2022-09-27T06:22:27;11.50;99.90
19172;DHT22;9718;52.200;21.052;2022-09-27T06:25:08;11.60;99.90
19172;DHT22;9718;52.200;21.052;2022-09-27T06:27:51;11.70;99.90
19172;DHT22;9718;52.200;21.052;2022-09-27T06:40:55;11.90;99.90
19172;DHT22;9718;52.200;21.052;2022-09-27T06:43:38;12.00;99.90
19172;DHT22;9718;52.200;21.052;2022-09-27T06:46:19;12.00;99.90
19172;DHT22;9718;52.200;21.052;2022-09-27T06:49:00;12.10;99.90
19172;DHT22;9718;52.200;21.052;2022-09-27T06:51:41;12.20;99.90
19172;DHT22;9718;52.200;21.052;2022-09-27T06:54:22;12.30;99.90
19172;DHT22;9718;52.200;21.052;2022-09-27T06:56:49;12.30;99.90
19172;DHT22;9718;52.200;21.052;2022-09-27T06:59:15;12.30;99.90
19172;DHT22;9718;52.200;21.052;2022-09-27T07:02:01;12.30;99.90
19172;DHT22;9718;52.200;21.052;2022-09-27T07:04:37;12.30;99.90
19172;DHT22;9718;52.200;21.052;2022-09-27T07:07:04;12.40;99.90
19172;DHT22;9718;52.200;21.052;2022-09-27T07:09:31;12.30;99.90
19172;DHT22;9718;52.200;21.052;2022-09-27T07:12:07;12.30;99.90
19172;DHT22;9718;52.200;21.052;2022-09-27T07:14:34;12.40;99.90
19172;DHT22;9718;52.200;21.052;2022-09-27T07:17:00;12.50;99.90
19172;DHT22;9718;52.200;21.052;2022-09-27T07:19:27;12.50;99.90
19172;DHT22;9718;52.200;21.052;2022-09-27T07:21:54;12.40;99.90
19172;DHT22;9718;52.200;21.052;2022-09-27T07:47:59;12.90;99.90
19172;DHT22;9718;52.200;21.052;2022-09-27T07:50:27;12.80;99.90
19172;DHT22;9718;52.200;21.052;2022-09-27T07:52:54;12.60;99.90
19172;DHT22;9718;52.200;21.052;2022-09-27T07:55:21;12.50;99.90
19172;DHT22;9718;52.200;21.052;2022-09-27T07:58:11;12.60;99.90
19172;DHT22;9718;52.200;21.052;2022-09-27T08:00:39;12.70;99.90
19172;DHT22;9718;52.200;21.052;2022-09-27T08:03:09;12.80;99.90
19172;DHT22;9718;52.200;21.052;2022-09-27T08:48:11;12.80;99.90
19172;DHT22;9718;52.200;21.052;2022-09-27T08:50:43;12.60;99.90
19172;DHT22;9718;52.200;21.052;2022-09-27T09:03:56;12.60;99.90
19172;DHT22;9718;52.200;21.052;2022-09-27T09:07:06;13.20;99.90
19172;DHT22;9718;52.200;21.052;2022-09-27T09:09:49;13.40;99.90
19172;DHT22;9718;52.200;21.052;2022-09-27T09:17:56;13.80;99.90
19172;DHT22;9718;52.200;21.052;2022-09-27T09:21:00;13.80;99.90
19172;DHT22;9718;52.200;21.052;2022-09-27T09:39:54;13.50;99.90
19172;DHT22;9718;52.200;21.052;2022-09-27T09:46:02;14.20;99.90
19172;DHT22;9718;52.200;21.052;2022-09-27T09:48:38;14.20;99.90
19172;DHT22;9718;52.200;21.052;2022-09-27T09:51:16;14.20;99.90
19172;DHT22;9718;52.200;21.052;2022-09-27T09:53:51;14.20;99.90
19172;DHT22;9718;52.200;21.052;2022-09-27T09:56:37;14.30;99.90
19172;DHT22;9718;52.200;21.052;2022-09-27T09:59:28;14.40;99.90
19172;DHT22;9718;52.200;21.052;2022-09-27T10:02:00;14.40;99.90
19172;DHT22;9718;52.200;21.052;2022-09-27T12:32:50;15.40;99.90
19172;DHT22;9718;52.200;21.052;2022-09-27T12:35:26;15.60;99.90
19172;DHT22;9718;52.200;21.052;2022-09-27T12:38:01;15.70;99.90
19172;DHT22;9718;52.200;21.052;2022-09-27T12:40:43;15.50;99.90
19172;DHT22;9718;52.200;21.052;2022-09-27T13:33:52;16.50;99.90
19172;DHT22;9718;52.200;21.052;2022-09-27T15:07:32;15.40;99.90
19172;DHT22;9718;52.200;21.052;2022-09-27T15:09:58;15.30;99.90
19172;DHT22;9718;52.200;21.052;2022-09-27T15:12:33;15.30;99.90
19172;DHT22;9718;52.200;21.052;2022-09-27T15:15:04;15.30;99.90
19172;DHT22;9718;52.200;21.052;2022-09-27T15:17:41;15.20;99.90
19172;DHT22;9718;52.200;21.052;2022-09-27T15:20:38;15.20;99.90
19172;DHT22;9718;52.200;21.052;2022-09-27T15:23:25;15.20;99.90
19172;DHT22;9718;52.200;21.052;2022-09-27T15:26:16;15.10;99.90
19172;DHT22;9718;52.200;21.052;2022-09-27T15:43:01;15.30;99.90
19172;DHT22;9718;52.200;21.052;2022-09-27T15:45:33;15.20;99.90
19172;DHT22;9718;52.200;21.052;2022-09-27T15:48:14;15.20;99.90
19172;DHT22;9718;52.200;21.052;2022-09-27T15:50:41;15.20;99.90
19172;DHT22;9718;52.200;21.052;2022-09-27T15:53:11;15.20;99.90
19172;DHT22;9718;52.200;21.052;2022-09-27T15:55:42;15.10;99.90
19172;DHT22;9718;52.200;21.052;2022-09-27T15:58:23;15.00;99.90
19172;DHT22;9718;52.200;21.052;2022-09-27T16:01:01;14.90;99.90
19172;DHT22;9718;52.200;21.052;2022-09-27T16:03:28;14.90;99.90
19172;DHT22;9718;52.200;21.052;2022-09-27T16:05:55;14.80;99.90
19172;DHT22;9718;52.200;21.052;2022-09-27T16:43:08;14.20;99.90
19172;DHT22;9718;52.200;21.052;2022-09-27T16:45:47;14.10;99.90
19172;DHT22;9718;52.200;21.052;2022-09-27T16:48:14;14.10;99.90
19172;DHT22;9718;52.200;21.052;2022-09-27T16:50:40;14.00;99.90
19172;DHT22;9718;52.200;21.052;2022-09-27T16:53:25;14.00;99.90
19172;DHT22;9718;52.200;21.052;2022-09-27T16:55:58;14.00;99.90
19172;DHT22;9718;52.200;21.052;2022-09-27T16:58:24;13.90;99.90
19172;DHT22;9718;52.200;21.052;2022-09-27T17:00:51;13.90;99.90
19172;DHT22;9718;52.200;21.052;2022-09-27T17:27:10;13.40;99.90
19172;DHT22;9718;52.200;21.052;2022-09-27T17:29:36;13.20;99.90
19172;DHT22;9718;52.200;21.052;2022-09-27T17:32:04;13.10;99.90
19172;DHT22;9718;52.200;21.052;2022-09-27T17:34:34;13.10;99.90
19172;DHT22;9718;52.200;21.052;2022-09-27T17:37:01;13.00;99.90
19172;DHT22;9718;52.200;21.052;2022-09-27T17:39:27;12.90;99.90
19172;DHT22;9718;52.200;21.052;2022-09-27T17:41:53;12.90;99.90
19172;DHT22;9718;52.200;21.052;2022-09-27T17:44:20;12.90;99.90
19172;DHT22;9718;52.200;21.052;2022-09-27T17:59:53;12.90;99.90
19172;DHT22;9718;52.200;21.052;2022-09-27T18:02:20;12.60;99.90
19172;DHT22;9718;52.200;21.052;2022-09-27T18:04:46;12.50;99.90
19172;DHT22;9718;52.200;21.052;2022-09-27T18:07:12;12.30;99.90
19172;DHT22;9718;52.200;21.052;2022-09-27T18:09:39;12.20;99.90
19172;DHT22;9718;52.200;21.052;2022-09-27T18:12:05;12.00;99.90
19172;DHT22;9718;52.200;21.052;2022-09-27T18:14:32;11.90;99.90
19172;DHT22;9718;52.200;21.052;2022-09-27T18:17:59;11.90;99.90
19172;DHT22;9718;52.200;21.052;2022-09-27T18:51:36;11.90;99.90
19172;DHT22;9718;52.200;21.052;2022-09-27T18:54:05;11.90;99.90
19172;DHT22;9718;52.200;21.052;2022-09-27T18:56:32;11.90;99.90
19172;DHT22;9718;52.200;21.052;2022-09-27T18:59:05;11.90;99.90
19172;DHT22;9718;52.200;21.052;2022-09-27T19:01:34;11.90;99.90
19172;DHT22;9718;52.200;21.052;2022-09-27T19:04:08;12.00;99.90
19172;DHT22;9718;52.200;21.052;2022-09-27T19:06:36;12.00;99.90
19172;DHT22;9718;52.200;21.052;2022-09-27T19:09:03;12.10;99.90
19172;DHT22;9718;52.200;21.052;2022-09-27T19:24:34;12.10;99.90
19172;DHT22;9718;52.200;21.052;2022-09-27T19:27:03;12.30;99.90
19172;DHT22;9718;52.200;21.052;2022-09-27T19:29:29;12.30;99.90
19172;DHT22;9718;52.200;21.052;2022-09-27T19:31:55;12.30;99.90
19172;DHT22;9718;52.200;21.052;2022-09-27T19:34:21;12.30;99.90
19172;DHT22;9718;52.200;21.052;2022-09-27T19:36:47;12.20;99.90
19172;DHT22;9718;52.200;21.052;2022-09-27T19:39:14;12.20;99.90
19172;DHT22;9718;52.200;21.052;2022-09-27T19:41:55;12.20;99.90
19172;DHT22;9718;52.200;21.052;2022-09-27T19:44:22;12.20;99.90
19172;DHT22;9718;52.200;21.052;2022-09-27T19:57:31;12.20;99.90
19172;DHT22;9718;52.200;21.052;2022-09-27T19:59:57;12.20;99.90
19172;DHT22;9718;52.200;21.052;2022-09-27T20:02:30;12.20;99.90
19172;DHT22;9718;52.200;21.052;2022-09-27T20:04:57;12.20;99.90
19172;DHT22;9718;52.200;21.052;2022-09-27T20:07:23;12.20;99.90
19172;DHT22;9718;52.200;21.052;2022-09-27T20:09:49;12.20;99.90
19172;DHT22;9718;52.200;21.052;2022-09-27T20:12:17;12.20;99.90
19172;DHT22;9718;52.200;21.052;2022-09-27T20:14:43;12.20;99.90
19172;DHT22;9718;52.200;21.052;2022-09-27T20:17:10;12.20;99.90
19172;DHT22;9718;52.200;21.052;2022-09-27T20:19:35;12.20;99.90
19172;DHT22;9718;52.200;21.052;2022-09-27T20:32:45;12.30;99.90
19172;DHT22;9718;52.200;21.052;2022-09-27T20:35:31;12.40;99.90
19172;DHT22;9718;52.200;21.052;2022-09-27T20:38:31;12.50;99.90
19172;DHT22;9718;52.200;21.052;2022-09-27T20:40:58;12.50;99.90
19172;DHT22;9718;52.200;21.052;2022-09-27T20:43:25;12.50;99.90
19172;DHT22;9718;52.200;21.052;2022-09-27T20:45:51;12.50;99.90
19172;DHT22;9718;52.200;21.052;2022-09-27T20:48:18;12.50;99.90
19172;DHT22;9718;52.200;21.052;2022-09-27T20:50:44;12.40;99.90
19172;DHT22;9718;52.200;21.052;2022-09-27T20:53:10;12.30;99.90
19172;DHT22;9718;52.200;21.052;2022-09-27T20:55:36;12.20;99.90
19172;DHT22;9718;52.200;21.052;2022-09-27T21:08:39;12.20;99.90
19172;DHT22;9718;52.200;21.052;2022-09-27T21:11:12;12.00;99.90
19172;DHT22;9718;52.200;21.052;2022-09-27T21:13:39;12.00;99.90
19172;DHT22;9718;52.200;21.052;2022-09-27T21:16:12;12.00;99.90
19172;DHT22;9718;52.200;21.052;2022-09-27T21:18:41;12.00;99.90
19172;DHT22;9718;52.200;21.052;2022-09-27T21:21:09;12.00;99.90
19172;DHT22;9718;52.200;21.052;2022-09-27T21:23:37;12.00;99.90
19172;DHT22;9718;52.200;21.052;2022-09-27T21:26:15;12.00;99.90
19172;DHT22;9718;52.200;21.052;2022-09-27T21:28:43;12.00;99.90
19172;DHT22;9718;52.200;21.052;2022-09-27T21:42:06;12.00;99.90
19172;DHT22;9718;52.200;21.052;2022-09-27T21:44:51;12.00;99.90
19172;DHT22;9718;52.200;21.052;2022-09-27T21:47:19;12.00;99.90
19172;DHT22;9718;52.200;21.052;2022-09-27T21:49:45;12.00;99.90
19172;DHT22;9718;52.200;21.052;2022-09-27T21:52:11;12.00;99.90
19172;DHT22;9718;52.200;21.052;2022-09-27T21:54:37;12.00;99.90
19172;DHT22;9718;52.200;21.052;2022-09-27T21:57:04;12.00;99.90
19172;DHT22;9718;52.200;21.052;2022-09-27T21:59:30;12.10;99.90
19172;DHT22;9718;52.200;21.052;2022-09-27T22:01:56;12.10;99.90
19172;DHT22;9718;52.200;21.052;2022-09-27T22:04:22;12.10;99.90
19172;DHT22;9718;52.200;21.052;2022-09-27T22:19:16;12.10;99.90
19172;DHT22;9718;52.200;21.052;2022-09-27T22:21:56;12.30;99.90
19172;DHT22;9718;52.200;21.052;2022-09-27T22:24:22;12.20;99.90
19172;DHT22;9718;52.200;21.052;2022-09-27T22:26:50;12.20;99.90
19172;DHT22;9718;52.200;21.052;2022-09-27T22:29:18;12.20;99.90
19172;DHT22;9718;52.200;21.052;2022-09-27T22:31:45;12.20;99.90
19172;DHT22;9718;52.200;21.052;2022-09-27T22:34:17;12.10;99.90
19172;DHT22;9718;52.200;21.052;2022-09-27T22:36:53;12.20;99.90
19172;DHT22;9718;52.200;21.052;2022-09-27T22:39:21;12.20;99.90
19172;DHT22;9718;52.200;21.052;2022-09-27T22:42:12;12.20;99.90
19172;DHT22;9718;52.200;21.052;2022-09-27T22:44:38;12.20;99.90
19172;DHT22;9718;52.200;21.052;2022-09-27T22:47:05;12.20;99.90
19172;DHT22;9718;52.200;21.052;2022-09-27T22:49:31;12.20;99.90
19172;DHT22;9718;52.200;21.052;2022-09-27T22:51:57;12.20;99.90
19172;DHT22;9718;52.200;21.052;2022-09-27T22:54:23;12.10;99.90
19172;DHT22;9718;52.200;21.052;2022-09-27T22:56:59;12.10;99.90
19172;DHT22;9718;52.200;21.052;2022-09-27T22:59:26;12.10;99.90
19172;DHT22;9718;52.200;21.052;2022-09-27T23:01:52;12.10;99.90
19172;DHT22;9718;52.200;21.052;2022-09-27T23:04:19;12.10;99.90
19172;DHT22;9718;52.200;21.052;2022-09-27T23:06:45;12.10;99.90
19172;DHT22;9718;52.200;21.052;2022-09-27T23:19:51;12.00;99.90
19172;DHT22;9718;52.200;21.052;2022-09-27T23:22:17;12.00;99.90
19172;DHT22;9718;52.200;21.052;2022-09-27T23:24:51;12.00;99.90
19172;DHT22;9718;52.200;21.052;2022-09-27T23:27:23;12.00;99.90
19172;DHT22;9718;52.200;21.052;2022-09-27T23:30:15;12.00;99.90
19172;DHT22;9718;52.200;21.052;2022-09-27T23:32:43;11.90;99.90
19172;DHT22;9718;52.200;21.052;2022-09-27T23:35:12;12.00;99.90
19172;DHT22;9718;52.200;21.052;2022-09-27T23:37:39;11.90;99.90
19172;DHT22;9718;52.200;21.052;2022-09-27T23:40:20;11.90;99.90
19172;DHT22;9718;52.200;21.052;2022-09-27T23:45:37;12.10;99.90
19172;DHT22;9718;52.200;21.052;2022-09-27T23:48:04;11.90;99.90
19172;DHT22;9718;52.200;21.052;2022-09-27T23:50:30;11.80;99.90
19172;DHT22;9718;52.200;21.052;2022-09-27T23:52:57;11.80;99.90
19172;DHT22;9718;52.200;21.052;2022-09-27T23:55:24;11.70;99.90
19172;DHT22;9718;52.200;21.052;2022-09-27T23:57:50;11.70;99.90
